createdAt,value
2023-05-15T00:01:50.249Z,97041.25
2023-05-15T00:06:53.385Z,97031.44
2023-05-15T00:11:57.966Z,97020.03
2023-05-15T00:17:01.265Z,97013.22
2023-05-15T00:22:04.508Z,97020.75
2023-05-15T00:27:09.213Z,97003.63
2023-05-15T00:32:13.578Z,97014.41
2023-05-15T00:37:16.826Z,96997.81
2023-05-15T00:42:22.383Z,97006.97
2023-05-15T00:47:27.996Z,97008.66
2023-05-15T00:52:31.864Z,97005.03
2023-05-15T00:57:36.605Z,96996.41
2023-05-15T01:02:41.140Z,96994.38
2023-05-15T01:07:50.548Z,96983.44
2023-05-15T01:12:57.075Z,96981.78
2023-05-15T01:18:00.420Z,96982.25
2023-05-15T01:23:11.282Z,96994.00
2023-05-15T01:28:20.981Z,96992.72
2023-05-15T01:33:28.257Z,96986.84
2023-05-15T01:38:36.493Z,96981.66
2023-05-15T01:43:44.022Z,96977.50
2023-05-15T01:48:47.544Z,96982.69
2023-05-15T01:53:50.924Z,96975.88
2023-05-15T01:59:00.237Z,96973.38
2023-05-15T02:04:05.589Z,96971.19
2023-05-15T02:09:09.205Z,96975.44
2023-05-15T02:14:13.944Z,96964.94
2023-05-15T02:19:17.132Z,96961.16
2023-05-15T02:24:20.318Z,96958.25
2023-05-15T02:29:35.873Z,96954.44
2023-05-15T02:34:41.036Z,96953.38
2023-05-15T02:39:46.097Z,96949.91
2023-05-15T02:44:51.525Z,96951.59
2023-05-15T02:49:54.648Z,96942.34
2023-05-15T02:54:57.893Z,96946.78
2023-05-15T03:00:05.283Z,96945.31
2023-05-15T03:05:10.259Z,96941.94
2023-05-15T03:10:13.482Z,96941.88
2023-05-15T03:15:18.268Z,96933.38
2023-05-15T03:20:21.539Z,96931.69
2023-05-15T03:25:25.075Z,96938.00
2023-05-15T03:30:29.779Z,96934.63
2023-05-15T03:35:33.372Z,96939.94
2023-05-15T03:40:36.546Z,96925.13
2023-05-15T03:45:41.575Z,96930.78
2023-05-15T03:50:45.988Z,96930.84
2023-05-15T03:55:49.371Z,96917.06
2023-05-15T04:00:54.641Z,96915.94
2023-05-15T04:05:58.066Z,96915.06
2023-05-15T04:11:01.488Z,96899.44
2023-05-15T04:16:07.395Z,96904.09
2023-05-15T04:21:10.745Z,96901.38
2023-05-15T04:26:14.092Z,96899.72
2023-05-15T04:31:19.461Z,96901.34
2023-05-15T04:36:22.972Z,96898.84
2023-05-15T04:41:26.763Z,96906.34
2023-05-15T04:46:37.533Z,96903.84
2023-05-15T04:51:41.580Z,96897.97
2023-05-15T04:56:44.868Z,96894.38
2023-05-15T05:01:49.747Z,96896.28
2023-05-15T05:06:53.268Z,96898.19
2023-05-15T05:11:56.476Z,96896.38
2023-05-15T05:17:01.093Z,96891.53
2023-05-15T05:22:06.027Z,96890.91
2023-05-15T05:27:09.442Z,96883.84
2023-05-15T05:32:14.127Z,96884.47
2023-05-15T05:37:17.300Z,96874.75
2023-05-15T05:42:20.511Z,96877.94
2023-05-15T05:47:25.250Z,96874.31
2023-05-15T05:52:29.379Z,96883.00
2023-05-15T05:57:32.615Z,96873.13
2023-05-15T06:02:37.539Z,96864.63
2023-05-15T06:07:41.364Z,96866.75
2023-05-15T06:12:44.632Z,96863.03
2023-05-15T06:17:49.537Z,96855.94
2023-05-15T06:22:52.871Z,96853.28
2023-05-15T06:27:56.241Z,96848.25
2023-05-15T06:33:01.108Z,96851.34
2023-05-15T06:38:04.705Z,96842.22
2023-05-15T06:43:08.010Z,96842.44
2023-05-15T06:48:12.716Z,96842.19
2023-05-15T06:53:17.707Z,96828.91
2023-05-15T06:58:21.138Z,96834.50
2023-05-15T07:03:25.966Z,96831.63
2023-05-15T07:08:29.208Z,96845.53
2023-05-15T07:13:32.469Z,96831.28
2023-05-15T07:18:37.327Z,96829.16
2023-05-15T07:23:40.642Z,96837.81
2023-05-15T07:28:43.875Z,96827.84
2023-05-15T07:33:48.487Z,96829.88
2023-05-15T07:38:51.921Z,96818.44
2023-05-15T07:43:55.155Z,96823.97
2023-05-15T07:48:59.662Z,96820.59
2023-05-15T07:54:04.384Z,96823.38
2023-05-15T07:59:07.786Z,96827.47
2023-05-15T08:04:13.177Z,96827.22
2023-05-15T08:09:19.075Z,96823.81
2023-05-15T08:14:22.405Z,96824.94
2023-05-15T08:19:27.017Z,96810.88
2023-05-15T08:24:30.640Z,96809.09
2023-05-15T08:29:33.950Z,96816.66
2023-05-15T08:34:38.728Z,96809.84
2023-05-15T08:39:42.319Z,96814.81
2023-05-15T08:44:45.666Z,96813.22
2023-05-15T08:49:58.617Z,96801.44
2023-05-15T08:55:02.279Z,96815.41
2023-05-15T09:00:09.378Z,96811.22
2023-05-15T09:05:14.960Z,96798.41
2023-05-15T09:10:18.398Z,96803.72
2023-05-15T09:15:25.369Z,96798.28
2023-05-15T09:20:31.671Z,96801.19
2023-05-15T09:25:37.723Z,96795.97
2023-05-15T09:30:43.895Z,96792.25
2023-05-15T09:35:48.470Z,96784.38
2023-05-15T09:40:51.983Z,96789.84
2023-05-15T09:45:55.850Z,96787.56
2023-05-15T09:51:01.927Z,96793.78
2023-05-15T09:56:05.322Z,96775.53
2023-05-15T10:01:12.054Z,96784.81
2023-05-15T10:06:21.326Z,96785.94
2023-05-15T10:11:24.891Z,96773.88
2023-05-15T10:16:29.678Z,96787.47
2023-05-15T10:21:37.360Z,96776.13
2023-05-15T10:26:41.752Z,96775.28
2023-05-15T10:31:45.010Z,96759.59
2023-05-15T10:36:52.883Z,96745.59
2023-05-15T10:41:56.759Z,96742.63
2023-05-15T10:47:00.658Z,96772.34
2023-05-15T10:52:05.729Z,96780.16
2023-05-15T10:57:10.652Z,96794.91
2023-05-15T11:02:21.457Z,96776.56
2023-05-15T11:07:26.181Z,96775.59
2023-05-15T11:12:56.432Z,96778.84
2023-05-15T11:18:04.649Z,96770.31
2023-05-15T11:23:10.035Z,96764.47
2023-05-15T11:28:23.232Z,96757.25
2023-05-15T11:33:31.338Z,96753.59
2023-05-15T11:38:40.098Z,96755.19
2023-05-15T11:43:43.259Z,96740.06
2023-05-15T11:48:48.421Z,96728.50
2023-05-15T11:53:54.452Z,96722.53
2023-05-15T11:58:58.968Z,96728.31
2023-05-15T12:04:02.521Z,96734.25
2023-05-15T12:09:07.806Z,96740.09
2023-05-15T12:14:12.975Z,96744.03
2023-05-15T12:19:16.230Z,96729.47
2023-05-15T12:24:21.410Z,96732.63
2023-05-15T12:29:24.757Z,96717.13
2023-05-15T12:34:28.093Z,96707.22
2023-05-15T12:39:32.771Z,96703.69
2023-05-15T12:44:36.442Z,96695.41
2023-05-15T12:49:40.028Z,96706.69
2023-05-15T12:54:45.607Z,96716.69
2023-05-15T12:59:48.922Z,96705.75
2023-05-15T13:04:52.097Z,96704.69
2023-05-15T13:10:06.672Z,96702.69
2023-05-15T13:15:23.975Z,96702.38
2023-05-15T13:20:28.567Z,96713.06
2023-05-15T13:25:33.380Z,96736.59
2023-05-15T13:30:36.640Z,96727.00
2023-05-15T13:35:41.285Z,96743.69
2023-05-15T13:40:46.204Z,96732.69
2023-05-15T13:45:49.408Z,96724.38
2023-05-15T13:50:52.762Z,96729.84
2023-05-15T13:55:57.502Z,96733.13
2023-05-15T14:01:01.327Z,96723.47
2023-05-15T14:06:04.846Z,96717.31
2023-05-15T14:11:09.672Z,96707.00
2023-05-15T14:16:12.975Z,96724.16
2023-05-15T14:21:16.527Z,96705.06
2023-05-15T14:26:22.043Z,96713.91
2023-05-15T14:31:25.678Z,96708.41
2023-05-15T14:36:29.020Z,96712.91
2023-05-15T14:41:33.766Z,96700.78
2023-05-15T14:46:38.261Z,96692.28
2023-05-15T14:51:43.274Z,96686.50
2023-05-15T14:56:49.660Z,96694.97
2023-05-15T15:01:53.269Z,96695.81
2023-05-15T15:06:57.426Z,96692.09
2023-05-15T15:12:02.868Z,96693.94
2023-05-15T15:17:06.625Z,96690.84
2023-05-15T15:22:10.251Z,96699.53
2023-05-15T15:27:15.356Z,96688.78
2023-05-15T15:32:19.184Z,96692.06
2023-05-15T15:37:23.182Z,96691.22
2023-05-15T15:42:29.050Z,96694.94
2023-05-15T15:47:32.703Z,96698.81
2023-05-15T15:52:38.456Z,96704.84
2023-05-15T15:57:43.945Z,96716.06
2023-05-15T16:02:47.096Z,96716.38
2023-05-15T16:07:50.410Z,96706.59
2023-05-15T16:12:55.101Z,96713.09
2023-05-15T16:17:59.470Z,96713.41
2023-05-15T16:23:03.019Z,96715.25
2023-05-15T16:28:08.721Z,96722.19
2023-05-15T16:33:13.255Z,96745.56
2023-05-15T16:38:18.158Z,96739.38
2023-05-15T16:43:22.799Z,96736.34
2023-05-15T16:48:26.354Z,96742.06
2023-05-15T16:53:30.131Z,96745.03
2023-05-15T16:58:34.780Z,96749.50
2023-05-15T17:03:38.106Z,96753.94
2023-05-15T17:08:42.699Z,96760.72
2023-05-15T17:13:47.128Z,96758.66
2023-05-15T17:18:50.369Z,96768.69
2023-05-15T17:23:54.317Z,96774.13
2023-05-15T17:28:58.893Z,96774.25
2023-05-15T17:34:02.139Z,96797.56
2023-05-15T17:39:05.413Z,96789.38
2023-05-15T17:44:10.318Z,96798.34
2023-05-15T17:49:13.920Z,96812.56
2023-05-15T17:54:17.396Z,96815.16
2023-05-15T17:59:22.261Z,96818.16
2023-05-15T18:04:25.651Z,96831.44
2023-05-15T18:09:32.579Z,96840.84
2023-05-15T18:14:38.780Z,96847.75
2023-05-15T18:19:45.006Z,96859.56
2023-05-15T18:24:48.528Z,96867.75
2023-05-15T18:29:53.467Z,96878.66
2023-05-15T18:34:56.727Z,96882.81
2023-05-15T18:40:00.251Z,96880.44
2023-05-15T18:45:05.629Z,96889.69
2023-05-15T18:50:10.667Z,96890.91
2023-05-15T18:55:14.872Z,96898.94
2023-05-15T19:00:34.046Z,96906.78
2023-05-15T19:05:43.886Z,96920.81
2023-05-15T19:10:50.266Z,96917.00
2023-05-15T19:15:55.715Z,96909.28
2023-05-15T19:21:00.898Z,96914.31
2023-05-15T19:26:04.285Z,96922.59
2023-05-15T19:31:20.365Z,96929.03
2023-05-15T19:36:34.321Z,96926.06
2023-05-15T19:41:38.869Z,96935.91
2023-05-15T19:46:45.198Z,96933.66
2023-05-15T19:51:52.027Z,96941.16
2023-05-15T19:56:58.603Z,96940.81
2023-05-15T20:02:05.701Z,96937.94
2023-05-15T20:07:08.896Z,96937.03
2023-05-15T20:12:12.090Z,96933.97
2023-05-15T20:17:18.770Z,96952.75
2023-05-15T20:22:22.064Z,96946.28
2023-05-15T20:27:25.372Z,96933.81
2023-05-15T20:32:30.555Z,96941.28
2023-05-15T20:37:34.894Z,96937.03
2023-05-15T20:42:38.409Z,96948.03
2023-05-15T20:47:43.141Z,96942.94
2023-05-15T20:52:47.143Z,96934.44
2023-05-15T20:57:50.957Z,96936.25
2023-05-15T21:02:56.132Z,96937.09
2023-05-15T21:07:59.573Z,96941.06
2023-05-15T21:13:02.871Z,96934.06
2023-05-15T21:18:07.886Z,96937.84
2023-05-15T21:23:11.967Z,96936.34
2023-05-15T21:28:15.650Z,96945.75
2023-05-15T21:33:20.459Z,96946.88
2023-05-15T21:38:23.738Z,96946.63
2023-05-15T21:43:26.938Z,96946.19
2023-05-15T21:48:31.634Z,96944.38
2023-05-15T21:53:34.933Z,96941.22
2023-05-15T21:58:38.198Z,96947.31
2023-05-15T22:03:42.945Z,96954.13
2023-05-15T22:08:46.244Z,96947.69
2023-05-15T22:13:49.445Z,96949.38
2023-05-15T22:18:55.123Z,96954.13
2023-05-15T22:23:58.642Z,96955.81
2023-05-15T22:29:01.867Z,96965.63
2023-05-15T22:34:06.589Z,96968.38
2023-05-15T22:39:10.131Z,96972.41
2023-05-15T22:44:13.346Z,96971.53
2023-05-15T22:49:23.605Z,96967.22
2023-05-15T22:54:27.051Z,96971.28
2023-05-15T22:59:30.333Z,96970.81
2023-05-15T23:04:35.177Z,96981.91
2023-05-15T23:09:38.385Z,96985.81
2023-05-15T23:14:41.625Z,96988.47
2023-05-15T23:19:46.635Z,96987.81
2023-05-15T23:24:49.864Z,96987.25
2023-05-15T23:29:53.063Z,96997.56
2023-05-15T23:34:58.564Z,96990.88
2023-05-15T23:40:01.976Z,96991.16
2023-05-15T23:45:06.388Z,97001.22
2023-05-15T23:50:11.530Z,96992.16
2023-05-15T23:55:15.066Z,97001.22
